VTST

Details ICAO VTST (TST)
Name Trang
Region Thailand
Timezone Asia/Bangkok (UTC+7.0)
Plans Departing 8
Arriving 13
Stats Elevation 67 ft / 20 m (AMSL)
Location 7.508744° 99.616580°
Runways 1
Magnetic Variation 0.328° W
Sunrise 2017-12-17 23:28:46 UTC / 2017-12-18 06:28:46 Local
Sunset 2017-12-18 11:09:58 UTC / 2017-12-18 18:09:58 Local
Advertisement - Login to hide

Runways

ID Width Length Bearing (true) Bearing (mag) Surface Threshold Offset Overrun Length
08 148 ft / 45 m 6,898 ft / 2,103 m 80.85° 81.18° Asphalt 0 ft / 0 m 197 ft / 60 m
26 148 ft / 45 m 6,898 ft / 2,103 m 260.85° 261.18° Asphalt 0 ft / 0 m 722 ft / 220 m

Approach Navaids

Runway Type Ident Frequency Range Bearing (true) Bearing (mag) Slope Elevation
08 Localiser ITRN 110.30 MHz 18 nm / 33 km 80.85° 81.18° - 52 ft / 16 m (AMSL)
08 Glidescope ITRN 110.30 MHz 10 nm / 19 km 80.85° 81.18° 3.50° 60 ft / 18 m (AMSL)
08 DME ITRN 110.30 MHz 18 nm / 33 km - - - 67 ft / 20 m (AMSL)

Map

Weather


0- 5 10 15 20 25 30 35+ Temperature / ° C

Clouds and Precipitation
Forecast for 2017-12-18 18:00 UTC. Updated an hour ago

Ground ~20,000 ft ~40,000 ft Winds

METAR

Not found

TAF

TAF VTST 181100Z 1812/1912 03008KT 9000 FEW020 BECMG 1902/1904 04010KT 9999

Frequencies

Tower 118.40 MHz TWR
Approach 125.30 MHz APP
Warning: Do not use this data for real-world aviation or navigation. No guarantee of current accuracy is given.